createdAt,value
2018-10-06T00:00:36.608Z,26.13
2018-10-06T00:03:06.630Z,26.17
2018-10-06T00:05:35.774Z,24.20
2018-10-06T00:08:05.846Z,20.53
2018-10-06T00:10:34.943Z,33.50
2018-10-06T00:13:03.902Z,26.83
2018-10-06T00:15:32.862Z,21.63
2018-10-06T00:18:03.037Z,20.67
2018-10-06T00:20:32.007Z,19.07
2018-10-06T00:23:01.378Z,28.80
2018-10-06T00:25:30.469Z,23.33
2018-10-06T00:27:59.464Z,30.60
2018-10-06T00:30:28.483Z,32.80
2018-10-06T00:32:57.417Z,20.60
2018-10-06T00:35:27.533Z,24.90
2018-10-06T00:37:56.497Z,29.47
2018-10-06T00:40:25.533Z,31.27
2018-10-06T00:42:54.529Z,21.50
2018-10-06T00:45:23.501Z,23.33
2018-10-06T00:47:52.611Z,25.10
2018-10-06T00:50:21.583Z,24.33
2018-10-06T00:52:50.608Z,21.63
2018-10-06T00:55:19.650Z,27.53
2018-10-06T00:57:48.680Z,23.00
2018-10-06T01:00:17.683Z,26.43
2018-10-06T01:02:46.681Z,26.03
2018-10-06T01:05:15.673Z,21.50
2018-10-06T01:07:44.816Z,23.07
2018-10-06T01:10:13.881Z,32.90
2018-10-06T01:12:42.890Z,31.27
2018-10-06T01:15:11.951Z,29.47
2018-10-06T01:17:40.972Z,23.87
2018-10-06T01:20:09.961Z,39.50
2018-10-06T01:22:38.940Z,29.73
2018-10-06T01:25:08.170Z,27.40
2018-10-06T01:27:37.161Z,28.60
2018-10-06T01:30:06.295Z,33.93
2018-10-06T01:32:35.266Z,31.13
2018-10-06T01:35:04.385Z,38.20
2018-10-06T01:37:33.457Z,30.10
2018-10-06T01:40:02.385Z,28.57
2018-10-06T01:42:31.480Z,26.63
2018-10-06T01:45:00.527Z,31.93
2018-10-06T01:47:29.493Z,32.70
2018-10-06T01:49:58.629Z,42.70
2018-10-06T01:52:27.772Z,39.07
2018-10-06T01:54:56.740Z,41.23
2018-10-06T01:57:25.791Z,36.53
2018-10-06T01:59:54.797Z,39.83
2018-10-06T02:02:24.138Z,41.73
2018-10-06T02:04:53.093Z,48.70
2018-10-06T02:07:22.469Z,49.50
2018-10-06T02:09:51.514Z,47.33
2018-10-06T02:12:20.538Z,40.70
2018-10-06T02:14:49.499Z,41.00
2018-10-06T02:17:18.462Z,45.13
2018-10-06T02:19:47.455Z,48.50
2018-10-06T02:22:16.615Z,38.47
2018-10-06T02:24:45.566Z,38.33
2018-10-06T02:27:14.542Z,43.90
2018-10-06T02:29:43.587Z,37.90
2018-10-06T02:32:12.631Z,33.90
2018-10-06T02:34:41.602Z,36.70
2018-10-06T02:37:10.591Z,39.50
2018-10-06T02:39:39.734Z,40.10
2018-10-06T02:42:08.820Z,33.87
2018-10-06T02:44:37.844Z,34.63
2018-10-06T02:47:06.834Z,35.73
2018-10-06T02:49:35.865Z,40.27
2018-10-06T02:52:05.047Z,36.37
2018-10-06T02:54:34.083Z,38.57
2018-10-06T02:57:03.199Z,39.00
2018-10-06T02:59:32.284Z,38.13
2018-10-06T03:02:01.230Z,30.30
2018-10-06T03:04:30.278Z,32.10
2018-10-06T03:06:59.441Z,32.97
2018-10-06T03:09:28.570Z,40.60
2018-10-06T03:11:57.549Z,34.30
2018-10-06T03:14:26.651Z,42.17
2018-10-06T03:16:55.755Z,37.30
2018-10-06T03:19:24.693Z,40.53
2018-10-06T03:21:53.993Z,33.33
2018-10-06T03:24:22.945Z,34.97
2018-10-06T03:26:52.094Z,37.37
2018-10-06T03:29:21.183Z,36.37
2018-10-06T03:31:50.203Z,38.20
2018-10-06T03:34:19.329Z,44.90
2018-10-06T03:36:48.328Z,39.43
2018-10-06T03:39:17.340Z,35.80
2018-10-06T03:41:46.356Z,39.50
2018-10-06T03:44:15.363Z,36.90
2018-10-06T03:46:44.299Z,36.50
2018-10-06T03:49:13.299Z,38.10
2018-10-06T03:51:42.357Z,46.93
2018-10-06T03:54:12.242Z,38.50
2018-10-06T03:56:42.460Z,35.37
2018-10-06T03:59:11.546Z,30.80
2018-10-06T04:01:40.477Z,39.30
2018-10-06T04:04:09.482Z,39.67
2018-10-06T04:06:38.414Z,32.97
2018-10-06T04:09:08.802Z,49.37
2018-10-06T04:11:38.321Z,35.07
2018-10-06T04:14:07.576Z,37.50
2018-10-06T04:16:36.572Z,45.33
2018-10-06T04:19:05.602Z,41.00
2018-10-06T04:21:43.090Z,41.10
2018-10-06T04:24:12.347Z,38.20
2018-10-06T04:26:41.323Z,43.93
2018-10-06T04:29:10.762Z,41.60
2018-10-06T04:31:40.351Z,49.77
2018-10-06T04:34:10.117Z,37.63
2018-10-06T04:36:39.217Z,33.90
2018-10-06T04:39:09.234Z,35.67
2018-10-06T04:41:38.281Z,43.87
2018-10-06T04:44:07.919Z,34.57
2018-10-06T04:46:37.081Z,48.73
2018-10-06T04:49:06.185Z,37.80
2018-10-06T04:51:35.296Z,35.87
2018-10-06T04:54:04.297Z,32.10
2018-10-06T04:56:33.247Z,35.07
2018-10-06T04:59:02.249Z,31.47
2018-10-06T05:01:31.329Z,44.23
2018-10-06T05:04:00.566Z,32.13
2018-10-06T05:06:29.654Z,36.80
2018-10-06T05:08:58.638Z,50.23
2018-10-06T05:11:28.389Z,41.83
2018-10-06T05:13:57.496Z,40.37
2018-10-06T05:16:26.497Z,41.70
2018-10-06T05:18:55.613Z,37.93
2018-10-06T05:21:24.561Z,53.53
2018-10-06T05:23:53.557Z,42.60
2018-10-06T05:26:22.595Z,44.67
2018-10-06T05:28:51.557Z,46.47
2018-10-06T05:31:20.573Z,51.87
2018-10-06T05:33:49.615Z,42.10
2018-10-06T05:36:19.849Z,48.27
2018-10-06T05:38:48.857Z,48.33
2018-10-06T05:41:17.893Z,40.77
2018-10-06T05:43:46.842Z,50.83
2018-10-06T05:46:15.848Z,41.73
2018-10-06T05:48:44.818Z,44.00
2018-10-06T05:51:14.255Z,42.67
2018-10-06T05:53:43.294Z,48.60
2018-10-06T05:56:12.259Z,45.40
2018-10-06T05:58:41.451Z,49.00
2018-10-06T06:01:10.449Z,46.43
2018-10-06T06:03:39.397Z,46.77
2018-10-06T06:06:08.493Z,42.03
2018-10-06T06:08:37.497Z,45.37
2018-10-06T06:11:06.486Z,57.07
2018-10-06T06:13:35.506Z,51.87
2018-10-06T06:16:04.533Z,41.83
2018-10-06T06:18:33.487Z,41.70
2018-10-06T06:21:02.494Z,43.03
2018-10-06T06:23:31.450Z,46.73
2018-10-06T06:26:00.583Z,43.90
2018-10-06T06:28:29.770Z,38.77
2018-10-06T06:30:58.788Z,42.90
2018-10-06T06:33:27.766Z,40.67
2018-10-06T06:35:56.775Z,44.47
2018-10-06T06:38:25.852Z,39.27
2018-10-06T06:40:54.734Z,37.03
2018-10-06T06:43:24.082Z,45.93
2018-10-06T06:45:53.038Z,37.60
2018-10-06T06:48:22.135Z,47.13
2018-10-06T06:50:51.183Z,42.87
2018-10-06T06:53:20.149Z,46.60
2018-10-06T06:55:49.167Z,47.50
2018-10-06T06:58:18.355Z,39.30
2018-10-06T07:00:47.486Z,55.27
2018-10-06T07:03:16.454Z,43.73
2018-10-06T07:05:45.644Z,44.73
2018-10-06T07:08:14.550Z,41.63
2018-10-06T07:10:43.670Z,47.10
2018-10-06T07:13:12.685Z,43.53
2018-10-06T07:15:41.709Z,43.10
2018-10-06T07:18:10.767Z,38.17
2018-10-06T07:20:40.932Z,37.63
2018-10-06T07:23:09.890Z,36.67
2018-10-06T07:25:38.935Z,28.10
2018-10-06T07:28:07.892Z,30.73
2018-10-06T07:30:36.911Z,35.03
2018-10-06T07:33:06.062Z,26.97
2018-10-06T07:35:36.278Z,27.30
2018-10-06T07:38:05.326Z,24.20
2018-10-06T07:40:34.435Z,35.20
2018-10-06T07:43:03.859Z,26.77
2018-10-06T07:45:33.996Z,25.10
2018-10-06T07:48:03.112Z,29.77
2018-10-06T07:50:32.111Z,23.37
2018-10-06T07:53:01.142Z,24.23
2018-10-06T07:55:30.402Z,25.13
2018-10-06T07:57:59.426Z,23.93
2018-10-06T08:00:28.722Z,27.10
2018-10-06T08:02:58.016Z,26.20
2018-10-06T08:05:26.962Z,25.30
2018-10-06T08:07:55.937Z,26.97
2018-10-06T08:10:24.949Z,21.80
2018-10-06T08:12:54.358Z,26.03
2018-10-06T08:15:23.306Z,19.60
2018-10-06T08:17:52.470Z,27.70
2018-10-06T08:20:21.439Z,25.43
2018-10-06T08:22:50.414Z,25.17
2018-10-06T08:25:19.747Z,25.47
2018-10-06T08:27:48.833Z,24.43
2018-10-06T08:30:18.185Z,27.93
2018-10-06T08:32:47.224Z,20.60
2018-10-06T08:35:16.157Z,23.80
2018-10-06T08:37:45.210Z,28.03
2018-10-06T08:40:14.210Z,27.63
2018-10-06T08:42:43.245Z,27.17
2018-10-06T08:45:12.228Z,28.63
2018-10-06T08:47:41.253Z,29.00
2018-10-06T08:50:10.390Z,33.53
2018-10-06T08:52:39.357Z,24.70
2018-10-06T08:55:09.351Z,25.70
2018-10-06T08:57:38.599Z,23.23
2018-10-06T09:00:07.582Z,24.23
2018-10-06T09:02:36.569Z,25.63
2018-10-06T09:05:05.749Z,17.60
2018-10-06T09:07:34.741Z,19.53
2018-10-06T09:10:03.762Z,17.43
2018-10-06T09:12:33.036Z,16.53
2018-10-06T09:15:02.162Z,23.03
2018-10-06T09:17:31.227Z,19.93
2018-10-06T09:20:00.362Z,17.23
2018-10-06T09:22:29.347Z,20.37
2018-10-06T09:24:58.282Z,15.63
2018-10-06T09:27:27.277Z,19.93
2018-10-06T09:29:57.342Z,23.60
2018-10-06T09:32:26.342Z,14.80
2018-10-06T09:34:55.329Z,16.50
2018-10-06T09:37:24.293Z,16.57
2018-10-06T09:39:53.483Z,21.33
2018-10-06T09:42:22.552Z,21.90
2018-10-06T09:44:51.447Z,17.60
2018-10-06T09:47:20.674Z,22.80
2018-10-06T09:49:49.703Z,16.27
2018-10-06T09:52:19.327Z,14.60
2018-10-06T09:54:48.259Z,18.83
2018-10-06T09:57:17.210Z,12.60
2018-10-06T09:59:46.536Z,15.97
2018-10-06T10:02:21.092Z,18.10
2018-10-06T10:04:50.284Z,15.77
2018-10-06T10:07:19.239Z,20.10
2018-10-06T10:09:49.379Z,12.97
2018-10-06T10:12:18.513Z,16.97
2018-10-06T10:14:47.518Z,16.93
2018-10-06T10:17:16.578Z,12.60
2018-10-06T10:19:45.982Z,25.37
2018-10-06T10:22:15.041Z,20.43
2018-10-06T10:24:44.041Z,13.30
2018-10-06T10:27:13.005Z,15.03
2018-10-06T10:29:42.087Z,15.30
2018-10-06T10:32:11.060Z,12.17
2018-10-06T10:34:40.051Z,15.33
2018-10-06T10:37:09.000Z,13.57
2018-10-06T10:39:38.021Z,8.30
2018-10-06T10:42:07.000Z,15.00
2018-10-06T10:44:36.073Z,12.73
2018-10-06T10:47:05.261Z,12.63
2018-10-06T10:49:34.173Z,18.40
2018-10-06T10:52:03.170Z,9.47
2018-10-06T10:54:32.164Z,14.93
2018-10-06T10:57:01.142Z,8.60
2018-10-06T10:59:30.213Z,13.57
2018-10-06T11:01:59.169Z,10.40
2018-10-06T11:04:28.109Z,13.90
2018-10-06T11:06:57.103Z,8.83
2018-10-06T11:09:26.046Z,11.63
2018-10-06T11:11:55.847Z,8.23
2018-10-06T11:14:24.796Z,10.90
2018-10-06T11:16:53.875Z,14.30
2018-10-06T11:19:22.850Z,11.47
2018-10-06T11:21:51.979Z,15.53
2018-10-06T11:24:20.943Z,10.07
2018-10-06T11:26:49.960Z,19.13
2018-10-06T11:29:18.906Z,16.20
2018-10-06T11:31:47.937Z,10.33
2018-10-06T11:34:16.929Z,10.73
2018-10-06T11:36:45.870Z,7.60
2018-10-06T11:39:14.838Z,11.70
2018-10-06T11:41:43.817Z,14.83
2018-10-06T11:44:12.858Z,7.90
2018-10-06T11:46:41.841Z,9.17
2018-10-06T11:49:10.871Z,12.00
2018-10-06T11:51:39.848Z,15.33
2018-10-06T11:54:08.825Z,12.40
2018-10-06T11:56:37.828Z,12.67
2018-10-06T11:59:06.796Z,9.17
2018-10-06T12:01:35.798Z,10.30
2018-10-06T12:04:04.766Z,9.37
2018-10-06T12:06:33.889Z,9.23
2018-10-06T12:09:02.864Z,9.53
2018-10-06T12:11:32.226Z,10.10
2018-10-06T12:14:01.304Z,14.23
2018-10-06T12:16:30.317Z,8.97
2018-10-06T12:18:59.694Z,6.83
2018-10-06T12:21:28.710Z,14.93
2018-10-06T12:23:57.840Z,10.67
2018-10-06T12:26:27.307Z,7.90
2018-10-06T12:28:56.318Z,12.03
2018-10-06T12:31:25.372Z,8.60
2018-10-06T12:33:54.384Z,8.40
2018-10-06T12:36:24.447Z,11.43
2018-10-06T12:38:53.456Z,7.10
2018-10-06T12:41:22.508Z,10.87
2018-10-06T12:43:51.481Z,11.03
2018-10-06T12:46:20.547Z,10.13
2018-10-06T12:48:49.509Z,9.10
2018-10-06T12:51:18.547Z,11.93
2018-10-06T12:53:47.489Z,8.83
2018-10-06T12:56:16.544Z,14.20
2018-10-06T12:58:45.499Z,9.10
2018-10-06T13:01:14.589Z,9.40
2018-10-06T13:03:43.698Z,11.97
2018-10-06T13:06:12.764Z,10.00
2018-10-06T13:08:41.644Z,10.40
2018-10-06T13:11:10.618Z,10.07
2018-10-06T13:13:39.648Z,8.47
2018-10-06T13:16:08.647Z,9.40
2018-10-06T13:18:37.596Z,8.67
2018-10-06T13:21:06.668Z,12.33
2018-10-06T13:23:35.658Z,6.30
2018-10-06T13:26:04.690Z,14.40
2018-10-06T13:28:33.698Z,11.57
2018-10-06T13:31:03.281Z,8.67
2018-10-06T13:33:32.276Z,8.90
2018-10-06T13:36:01.373Z,6.17
2018-10-06T13:38:30.360Z,14.00
2018-10-06T13:40:59.310Z,13.63
2018-10-06T13:43:28.299Z,5.53
2018-10-06T13:45:57.300Z,6.20
2018-10-06T13:48:26.247Z,6.00
2018-10-06T13:50:55.414Z,9.93
2018-10-06T13:53:24.391Z,5.23
2018-10-06T13:55:53.353Z,6.93
2018-10-06T13:58:22.373Z,6.70
2018-10-06T14:00:51.357Z,17.07
2018-10-06T14:03:20.336Z,8.00
2018-10-06T14:05:49.518Z,7.60
2018-10-06T14:08:18.565Z,7.53
2018-10-06T14:10:47.526Z,7.17
2018-10-06T14:13:16.488Z,4.87
2018-10-06T14:15:45.442Z,6.30
2018-10-06T14:18:15.069Z,7.23
2018-10-06T14:20:44.291Z,8.27
2018-10-06T14:23:13.310Z,8.90
2018-10-06T14:25:42.290Z,10.20
2018-10-06T14:28:11.274Z,7.00
2018-10-06T14:30:40.330Z,4.13
2018-10-06T14:33:09.335Z,5.40
2018-10-06T14:35:38.330Z,8.80
2018-10-06T14:38:07.335Z,5.47
2018-10-06T14:40:36.617Z,7.60
2018-10-06T14:43:05.712Z,8.27
2018-10-06T14:45:34.873Z,7.63
2018-10-06T14:48:03.806Z,10.50
2018-10-06T14:50:32.774Z,5.57
2018-10-06T14:53:01.815Z,9.00
2018-10-06T14:55:30.786Z,5.30
2018-10-06T14:57:59.733Z,13.87
2018-10-06T15:00:28.819Z,7.13
2018-10-06T15:02:57.774Z,7.70
2018-10-06T15:05:26.741Z,4.70
2018-10-06T15:07:55.787Z,6.27
2018-10-06T15:10:24.829Z,7.53
2018-10-06T15:12:53.800Z,11.60
2018-10-06T15:15:22.781Z,8.83
2018-10-06T15:17:51.792Z,7.10
2018-10-06T15:20:20.737Z,4.00
2018-10-06T15:22:49.766Z,5.70
2018-10-06T15:25:18.730Z,13.07
2018-10-06T15:27:47.717Z,9.10
2018-10-06T15:30:16.704Z,7.30
2018-10-06T15:32:45.660Z,7.50
2018-10-06T15:35:14.628Z,9.40
2018-10-06T15:37:43.653Z,8.57
2018-10-06T15:40:12.552Z,16.03
2018-10-06T15:42:41.567Z,5.40
2018-10-06T15:45:10.624Z,9.73
2018-10-06T15:47:39.586Z,11.13
2018-10-06T15:50:08.531Z,6.63
2018-10-06T15:52:37.488Z,6.33
2018-10-06T15:55:06.575Z,6.03
2018-10-06T15:57:35.578Z,8.23
2018-10-06T16:00:04.654Z,6.97
2018-10-06T16:02:33.817Z,7.53
2018-10-06T16:05:02.906Z,7.60
2018-10-06T16:07:32.125Z,6.23
2018-10-06T16:10:01.210Z,9.03
2018-10-06T16:12:30.420Z,9.20
2018-10-06T16:14:59.382Z,19.23
2018-10-06T16:17:28.399Z,12.97
2018-10-06T16:19:57.394Z,9.97
2018-10-06T16:22:26.396Z,12.10
2018-10-06T16:24:55.362Z,13.30
2018-10-06T16:27:24.470Z,18.50
2018-10-06T16:29:53.397Z,14.60
2018-10-06T16:32:22.518Z,11.03
2018-10-06T16:34:51.492Z,13.10
2018-10-06T16:37:20.621Z,10.00
2018-10-06T16:39:49.650Z,11.67
2018-10-06T16:42:18.830Z,9.33
2018-10-06T16:44:47.942Z,20.40
2018-10-06T16:47:16.911Z,7.47
2018-10-06T16:49:45.920Z,8.50
2018-10-06T16:52:14.948Z,10.27
2018-10-06T16:54:43.887Z,16.67
2018-10-06T16:57:12.936Z,16.47
2018-10-06T16:59:41.900Z,10.37
2018-10-06T17:02:10.976Z,11.33
2018-10-06T17:04:39.909Z,13.60
2018-10-06T17:07:09.268Z,13.20
2018-10-06T17:09:38.208Z,9.10
2018-10-06T17:12:07.213Z,11.83
2018-10-06T17:14:36.346Z,10.00
2018-10-06T17:17:05.306Z,15.13
2018-10-06T17:19:34.333Z,22.83
2018-10-06T17:22:03.506Z,15.40
2018-10-06T17:24:32.458Z,10.30
2018-10-06T17:27:01.451Z,12.50
2018-10-06T17:29:30.373Z,9.37
2018-10-06T17:31:59.355Z,11.17
2018-10-06T17:34:28.324Z,17.13
2018-10-06T17:36:57.438Z,21.67
2018-10-06T17:39:26.418Z,21.30
2018-10-06T17:41:56.514Z,22.03
2018-10-06T17:44:25.702Z,21.63
2018-10-06T17:46:54.640Z,19.97
2018-10-06T17:49:23.615Z,19.43
2018-10-06T17:51:52.598Z,26.37
2018-10-06T17:54:21.590Z,16.87
2018-10-06T17:56:50.605Z,21.47
2018-10-06T17:59:19.623Z,17.30
2018-10-06T18:01:48.625Z,17.50
2018-10-06T18:04:17.693Z,16.47
2018-10-06T18:06:46.670Z,16.07
2018-10-06T18:09:15.637Z,20.90
2018-10-06T18:11:44.640Z,22.20
2018-10-06T18:14:13.611Z,23.83
2018-10-06T18:16:42.605Z,25.00
2018-10-06T18:19:11.570Z,19.57
2018-10-06T18:21:40.746Z,21.83
2018-10-06T18:24:09.704Z,24.87
2018-10-06T18:26:38.747Z,26.70
2018-10-06T18:29:07.789Z,21.83
2018-10-06T18:31:37.095Z,18.90
2018-10-06T18:34:06.217Z,16.50
2018-10-06T18:36:35.767Z,19.30
2018-10-06T18:39:06.100Z,20.27
2018-10-06T18:41:35.209Z,26.83
2018-10-06T18:44:04.158Z,18.40
2018-10-06T18:46:33.690Z,26.30
2018-10-06T18:49:02.940Z,19.80
2018-10-06T18:51:31.890Z,25.97
2018-10-06T18:54:01.035Z,22.03
2018-10-06T18:56:30.043Z,28.33
2018-10-06T18:58:59.227Z,20.17
2018-10-06T19:01:28.183Z,23.10
2018-10-06T19:03:57.225Z,23.40
2018-10-06T19:06:26.118Z,22.70
2018-10-06T19:08:55.234Z,29.57
2018-10-06T19:11:24.202Z,25.07
2018-10-06T19:13:53.399Z,24.07
2018-10-06T19:16:22.490Z,22.57
2018-10-06T19:18:51.563Z,23.93
2018-10-06T19:21:20.538Z,27.07
2018-10-06T19:23:49.596Z,28.43
2018-10-06T19:26:18.614Z,24.23
2018-10-06T19:28:47.586Z,19.97
2018-10-06T19:31:16.842Z,24.03
2018-10-06T19:33:45.917Z,21.73
2018-10-06T19:36:14.871Z,21.10
2018-10-06T19:38:43.850Z,21.03
2018-10-06T19:41:12.938Z,23.00
2018-10-06T19:43:41.881Z,23.67
2018-10-06T19:46:11.014Z,17.30
2018-10-06T19:48:39.970Z,25.83
2018-10-06T19:51:09.035Z,22.13
2018-10-06T19:53:37.973Z,20.97
2018-10-06T19:56:07.010Z,25.23
2018-10-06T19:58:36.014Z,25.50
2018-10-06T20:01:05.025Z,22.57
2018-10-06T20:03:34.021Z,30.20
2018-10-06T20:06:03.255Z,23.83
2018-10-06T20:08:35.158Z,21.40
2018-10-06T20:11:04.336Z,24.60
2018-10-06T20:13:33.435Z,24.83
2018-10-06T20:16:02.449Z,28.73
2018-10-06T20:18:31.522Z,35.10
2018-10-06T20:21:00.831Z,30.00
2018-10-06T20:23:29.778Z,36.90
2018-10-06T20:25:58.819Z,35.73
2018-10-06T20:28:27.814Z,36.43
2018-10-06T20:30:56.845Z,34.23
2018-10-06T20:33:25.846Z,38.60
2018-10-06T20:35:54.822Z,37.63
2018-10-06T20:38:23.802Z,37.60
2018-10-06T20:40:52.766Z,45.30
2018-10-06T20:43:21.712Z,36.60
2018-10-06T20:45:50.698Z,41.13
2018-10-06T20:48:19.840Z,38.07
2018-10-06T20:50:48.817Z,45.60
2018-10-06T20:53:17.834Z,39.57
2018-10-06T20:55:46.790Z,36.67
2018-10-06T20:58:15.857Z,38.80
2018-10-06T21:00:44.907Z,44.43
2018-10-06T21:03:13.859Z,44.37
2018-10-06T21:05:43.110Z,42.60
2018-10-06T21:08:12.153Z,55.63
2018-10-06T21:10:41.285Z,50.57
2018-10-06T21:13:10.276Z,51.67
2018-10-06T21:15:39.282Z,51.23
2018-10-06T21:18:08.438Z,56.90
2018-10-06T21:20:37.414Z,52.80
2018-10-06T21:23:06.362Z,57.70
2018-10-06T21:25:35.546Z,58.90
2018-10-06T21:28:04.527Z,58.97
2018-10-06T21:30:33.647Z,65.70
2018-10-06T21:33:02.644Z,66.63
2018-10-06T21:35:31.686Z,73.70
2018-10-06T21:38:00.686Z,68.60
2018-10-06T21:40:29.654Z,72.47
2018-10-06T21:42:58.667Z,79.10
2018-10-06T21:45:27.633Z,78.80
2018-10-06T21:47:56.604Z,81.23
2018-10-06T21:50:25.578Z,84.50
2018-10-06T21:52:54.645Z,88.03
2018-10-06T21:55:23.594Z,86.90
2018-10-06T21:57:52.622Z,90.70
2018-10-06T22:00:21.574Z,100.13
2018-10-06T22:02:50.518Z,100.33
2018-10-06T22:05:19.612Z,93.07
2018-10-06T22:07:48.602Z,87.90
2018-10-06T22:10:17.698Z,92.27
2018-10-06T22:12:46.672Z,88.53
2018-10-06T22:15:15.701Z,87.13
2018-10-06T22:17:44.603Z,92.20
2018-10-06T22:20:13.844Z,98.00
2018-10-06T22:22:42.844Z,95.50
2018-10-06T22:25:11.865Z,87.43
2018-10-06T22:27:41.050Z,100.07
2018-10-06T22:30:10.280Z,100.13
2018-10-06T22:32:39.250Z,102.90
2018-10-06T22:35:08.278Z,98.60
2018-10-06T22:37:37.283Z,93.77
2018-10-06T22:40:06.999Z,98.13
2018-10-06T22:42:35.970Z,102.83
2018-10-06T22:45:05.374Z,100.70
2018-10-06T22:47:34.345Z,101.17
2018-10-06T22:50:03.294Z,103.47
2018-10-06T22:52:32.323Z,95.83
2018-10-06T22:55:01.336Z,110.10
2018-10-06T22:57:30.509Z,107.07
2018-10-06T22:59:59.445Z,112.37
2018-10-06T23:02:28.501Z,108.63
2018-10-06T23:04:57.483Z,102.90
2018-10-06T23:07:26.847Z,105.80
2018-10-06T23:09:55.793Z,102.73
2018-10-06T23:12:24.770Z,111.70
2018-10-06T23:14:53.762Z,115.27
2018-10-06T23:17:22.731Z,95.00
2018-10-06T23:19:51.706Z,99.47
2018-10-06T23:22:20.666Z,103.17
2018-10-06T23:24:49.648Z,110.57
2018-10-06T23:27:18.776Z,100.00
2018-10-06T23:29:47.759Z,103.73
2018-10-06T23:32:16.709Z,100.93
2018-10-06T23:34:45.721Z,120.03
2018-10-06T23:37:14.845Z,107.60
2018-10-06T23:39:44.132Z,111.03
2018-10-06T23:42:13.152Z,125.40
2018-10-06T23:44:42.146Z,122.43
2018-10-06T23:47:11.133Z,135.63
2018-10-06T23:49:40.230Z,156.10
2018-10-06T23:52:09.214Z,156.33
2018-10-06T23:54:38.286Z,166.77
2018-10-06T23:57:07.440Z,161.70
2018-10-06T23:59:36.427Z,172.70
